Decoded Metar for KJST (JOHNSTOWN in PA, USA) (IATA:JST) | Meteo·Mobile Aviation Weather
aviador You're here:

KJST Decoded Metar

JOHNSTOWN in PA, USA
Report Time2019-02-16 07:34:00
UTC Time2019-02-16 07:49:18
Flight Rules mvfr MVFR
Wind300° at 10 kt
W.Decomp.*RWY 33: 9.4 kt HW 3.4 kt LCW
RWY 23: 1.7 kt HW 9.8 kt RCW
W.Rank300° ranks 7
Current wind is below 300° avg. (10.7)
Visibility9999 m
Phenomena:N/A
Clouds:Broken 017 Hf
Expected CloudBase > 1,200 ft AGL from Temp-Dew spread
Ceiling1,700 ft
Temp-6°C (ISA -16)
Dew Point-9°C (80% RH)
AAT-12.6°C
QNH1009 hPa
Density Alt436 ft
Elevation2,277 ft
Report Wrong Elevation
Raw Report
KJST 160734Z AUTO 30010KT 10SM BKN017 M06/M09 A2981 RMK AO2
T10561089=

Extra information for KJST:More info

Metar Taf Metar & Taf Last 4 Metars F.Rules Stats Wind Profile Meteogram Temp Stats Airport Information Weather charts Add Link Nearby VenuesMetar ALERT Operation Metar Decoded Social comments

AIRNAV info for KJST